sensor_id;sensor_type;location;lat;lon;timestamp;temperature;humidity
4739;DHT22;2383;48.632;10.156;2023-05-14T00:02:03;11.00;99.90
4739;DHT22;2383;48.632;10.156;2023-05-14T00:06:06;11.30;99.90
4739;DHT22;2383;48.632;10.156;2023-05-14T00:10:09;11.30;99.90
4739;DHT22;2383;48.632;10.156;2023-05-14T00:14:12;10.90;99.90
4739;DHT22;2383;48.632;10.156;2023-05-14T00:18:14;11.00;99.90
4739;DHT22;2383;48.632;10.156;2023-05-14T00:22:16;11.10;99.90
4739;DHT22;2383;48.632;10.156;2023-05-14T00:26:18;11.20;99.90
4739;DHT22;2383;48.632;10.156;2023-05-14T00:30:22;10.70;99.90
4739;DHT22;2383;48.632;10.156;2023-05-14T00:34:24;10.50;99.90
4739;DHT22;2383;48.632;10.156;2023-05-14T00:38:26;10.90;99.90
4739;DHT22;2383;48.632;10.156;2023-05-14T00:42:29;10.90;99.90
4739;DHT22;2383;48.632;10.156;2023-05-14T00:46:31;10.60;99.90
4739;DHT22;2383;48.632;10.156;2023-05-14T00:50:33;10.90;99.90
4739;DHT22;2383;48.632;10.156;2023-05-14T00:54:35;10.90;99.90
4739;DHT22;2383;48.632;10.156;2023-05-14T00:58:37;11.10;99.90
4739;DHT22;2383;48.632;10.156;2023-05-14T01:02:39;11.10;99.90
4739;DHT22;2383;48.632;10.156;2023-05-14T01:11:24;11.00;99.90
4739;DHT22;2383;48.632;10.156;2023-05-14T01:15:31;11.00;99.90
4739;DHT22;2383;48.632;10.156;2023-05-14T01:19:43;11.10;99.90
4739;DHT22;2383;48.632;10.156;2023-05-14T01:23:45;10.80;99.90
4739;DHT22;2383;48.632;10.156;2023-05-14T01:32:17;10.90;99.90
4739;DHT22;2383;48.632;10.156;2023-05-14T01:36:19;11.00;99.90
4739;DHT22;2383;48.632;10.156;2023-05-14T01:40:22;11.00;99.90
4739;DHT22;2383;48.632;10.156;2023-05-14T01:44:25;10.10;99.90
4739;DHT22;2383;48.632;10.156;2023-05-14T01:48:28;10.50;99.90
4739;DHT22;2383;48.632;10.156;2023-05-14T01:52:30;10.80;99.90
4739;DHT22;2383;48.632;10.156;2023-05-14T01:56:33;10.90;99.90
4739;DHT22;2383;48.632;10.156;2023-05-14T02:00:34;10.90;99.90
4739;DHT22;2383;48.632;10.156;2023-05-14T02:04:36;11.00;99.90
4739;DHT22;2383;48.632;10.156;2023-05-14T02:08:38;10.90;99.90
4739;DHT22;2383;48.632;10.156;2023-05-14T02:12:40;10.90;99.90
4739;DHT22;2383;48.632;10.156;2023-05-14T02:16:42;11.00;99.90
4739;DHT22;2383;48.632;10.156;2023-05-14T02:20:45;10.70;99.90
4739;DHT22;2383;48.632;10.156;2023-05-14T02:24:47;10.80;99.90
4739;DHT22;2383;48.632;10.156;2023-05-14T02:28:52;10.90;99.90
4739;DHT22;2383;48.632;10.156;2023-05-14T02:32:53;10.70;99.90
4739;DHT22;2383;48.632;10.156;2023-05-14T02:36:56;10.80;99.90
4739;DHT22;2383;48.632;10.156;2023-05-14T02:40:58;10.60;99.90
4739;DHT22;2383;48.632;10.156;2023-05-14T02:45:00;10.80;99.90
4739;DHT22;2383;48.632;10.156;2023-05-14T02:49:02;10.80;99.90
4739;DHT22;2383;48.632;10.156;2023-05-14T02:53:03;10.60;99.90
4739;DHT22;2383;48.632;10.156;2023-05-14T02:57:05;10.50;99.90
4739;DHT22;2383;48.632;10.156;2023-05-14T03:01:08;10.50;99.90
4739;DHT22;2383;48.632;10.156;2023-05-14T03:05:10;10.70;99.90
4739;DHT22;2383;48.632;10.156;2023-05-14T03:09:12;10.90;99.90
4739;DHT22;2383;48.632;10.156;2023-05-14T03:13:15;11.00;99.90
4739;DHT22;2383;48.632;10.156;2023-05-14T03:17:18;10.90;99.90
4739;DHT22;2383;48.632;10.156;2023-05-14T03:21:20;11.00;99.90
4739;DHT22;2383;48.632;10.156;2023-05-14T03:25:22;11.10;99.90
4739;DHT22;2383;48.632;10.156;2023-05-14T03:29:25;10.90;99.90
4739;DHT22;2383;48.632;10.156;2023-05-14T03:33:27;10.90;99.90
4739;DHT22;2383;48.632;10.156;2023-05-14T03:37:29;10.70;99.90
4739;DHT22;2383;48.632;10.156;2023-05-14T03:41:33;10.90;99.90
4739;DHT22;2383;48.632;10.156;2023-05-14T03:45:36;10.70;99.90
4739;DHT22;2383;48.632;10.156;2023-05-14T03:49:38;10.80;99.90
4739;DHT22;2383;48.632;10.156;2023-05-14T03:53:42;10.90;99.90
4739;DHT22;2383;48.632;10.156;2023-05-14T03:57:44;11.00;99.90
4739;DHT22;2383;48.632;10.156;2023-05-14T04:01:46;11.10;99.90
4739;DHT22;2383;48.632;10.156;2023-05-14T04:05:49;11.00;99.90
4739;DHT22;2383;48.632;10.156;2023-05-14T04:09:51;10.90;99.90
4739;DHT22;2383;48.632;10.156;2023-05-14T04:13:53;10.90;99.90
4739;DHT22;2383;48.632;10.156;2023-05-14T04:17:56;10.70;99.90
4739;DHT22;2383;48.632;10.156;2023-05-14T04:21:58;10.60;99.90
4739;DHT22;2383;48.632;10.156;2023-05-14T04:26:00;10.60;99.90
4739;DHT22;2383;48.632;10.156;2023-05-14T04:30:02;10.90;99.90
4739;DHT22;2383;48.632;10.156;2023-05-14T04:34:04;11.00;99.90
4739;DHT22;2383;48.632;10.156;2023-05-14T04:38:06;10.90;99.90
4739;DHT22;2383;48.632;10.156;2023-05-14T04:42:09;10.40;99.90
4739;DHT22;2383;48.632;10.156;2023-05-14T04:46:11;10.50;99.90
4739;DHT22;2383;48.632;10.156;2023-05-14T04:50:14;10.70;99.90
4739;DHT22;2383;48.632;10.156;2023-05-14T04:54:17;10.60;99.90
4739;DHT22;2383;48.632;10.156;2023-05-14T04:58:19;10.50;99.90
4739;DHT22;2383;48.632;10.156;2023-05-14T05:02:21;10.30;99.90
4739;DHT22;2383;48.632;10.156;2023-05-14T05:06:22;9.80;99.90
4739;DHT22;2383;48.632;10.156;2023-05-14T05:10:24;9.00;99.90
4739;DHT22;2383;48.632;10.156;2023-05-14T05:14:27;9.90;99.90
4739;DHT22;2383;48.632;10.156;2023-05-14T05:18:29;10.40;99.90
4739;DHT22;2383;48.632;10.156;2023-05-14T05:22:31;10.30;99.90
4739;DHT22;2383;48.632;10.156;2023-05-14T05:26:33;10.60;99.90
4739;DHT22;2383;48.632;10.156;2023-05-14T05:30:38;10.60;99.90
4739;DHT22;2383;48.632;10.156;2023-05-14T05:34:40;10.40;99.90
4739;DHT22;2383;48.632;10.156;2023-05-14T05:38:42;10.00;99.90
4739;DHT22;2383;48.632;10.156;2023-05-14T05:42:44;9.50;99.90
4739;DHT22;2383;48.632;10.156;2023-05-14T05:46:46;10.10;99.90
4739;DHT22;2383;48.632;10.156;2023-05-14T05:50:49;10.40;99.90
4739;DHT22;2383;48.632;10.156;2023-05-14T05:54:52;10.50;99.90
4739;DHT22;2383;48.632;10.156;2023-05-14T05:58:54;10.80;99.90
4739;DHT22;2383;48.632;10.156;2023-05-14T06:02:55;10.90;99.90
4739;DHT22;2383;48.632;10.156;2023-05-14T06:06:58;10.90;99.90
4739;DHT22;2383;48.632;10.156;2023-05-14T06:11:00;11.00;99.90
4739;DHT22;2383;48.632;10.156;2023-05-14T06:15:02;10.80;99.90
4739;DHT22;2383;48.632;10.156;2023-05-14T06:19:04;10.40;99.90
4739;DHT22;2383;48.632;10.156;2023-05-14T06:23:07;11.00;99.90
4739;DHT22;2383;48.632;10.156;2023-05-14T06:27:09;10.90;99.90
4739;DHT22;2383;48.632;10.156;2023-05-14T06:31:12;11.50;99.90
4739;DHT22;2383;48.632;10.156;2023-05-14T06:35:14;10.20;99.90
4739;DHT22;2383;48.632;10.156;2023-05-14T06:39:16;10.60;99.90
4739;DHT22;2383;48.632;10.156;2023-05-14T06:43:18;11.40;99.90
4739;DHT22;2383;48.632;10.156;2023-05-14T06:47:20;11.20;99.90
4739;DHT22;2383;48.632;10.156;2023-05-14T06:51:22;10.70;99.90
4739;DHT22;2383;48.632;10.156;2023-05-14T06:55:24;10.90;99.90
4739;DHT22;2383;48.632;10.156;2023-05-14T06:59:26;11.50;99.90
4739;DHT22;2383;48.632;10.156;2023-05-14T07:03:28;11.00;99.90
4739;DHT22;2383;48.632;10.156;2023-05-14T07:07:31;11.00;99.90
4739;DHT22;2383;48.632;10.156;2023-05-14T07:11:32;10.60;99.90
4739;DHT22;2383;48.632;10.156;2023-05-14T07:15:35;11.40;99.90
4739;DHT22;2383;48.632;10.156;2023-05-14T07:19:37;11.50;99.90
4739;DHT22;2383;48.632;10.156;2023-05-14T07:23:39;11.40;99.90
4739;DHT22;2383;48.632;10.156;2023-05-14T07:27:40;11.80;99.90
4739;DHT22;2383;48.632;10.156;2023-05-14T07:31:42;11.70;99.90
4739;DHT22;2383;48.632;10.156;2023-05-14T07:35:44;11.80;99.90
4739;DHT22;2383;48.632;10.156;2023-05-14T07:39:47;11.20;99.90
4739;DHT22;2383;48.632;10.156;2023-05-14T07:43:48;11.70;99.90
4739;DHT22;2383;48.632;10.156;2023-05-14T07:47:50;10.80;99.90
4739;DHT22;2383;48.632;10.156;2023-05-14T07:51:53;10.70;99.90
4739;DHT22;2383;48.632;10.156;2023-05-14T07:55:55;11.40;99.90
4739;DHT22;2383;48.632;10.156;2023-05-14T07:59:57;11.60;99.90
4739;DHT22;2383;48.632;10.156;2023-05-14T08:03:59;11.70;99.90
4739;DHT22;2383;48.632;10.156;2023-05-14T08:08:01;11.80;99.90
4739;DHT22;2383;48.632;10.156;2023-05-14T08:12:03;11.80;99.90
4739;DHT22;2383;48.632;10.156;2023-05-14T08:16:06;11.70;99.90
4739;DHT22;2383;48.632;10.156;2023-05-14T08:20:08;11.70;99.90
4739;DHT22;2383;48.632;10.156;2023-05-14T08:24:11;11.70;99.90
4739;DHT22;2383;48.632;10.156;2023-05-14T08:28:13;11.70;99.90
4739;DHT22;2383;48.632;10.156;2023-05-14T08:32:15;12.00;99.90
4739;DHT22;2383;48.632;10.156;2023-05-14T08:36:24;12.30;99.90
4739;DHT22;2383;48.632;10.156;2023-05-14T08:40:26;11.30;99.90
4739;DHT22;2383;48.632;10.156;2023-05-14T08:44:38;11.10;99.90
4739;DHT22;2383;48.632;10.156;2023-05-14T08:48:47;11.50;99.90
4739;DHT22;2383;48.632;10.156;2023-05-14T08:52:51;11.20;99.90
4739;DHT22;2383;48.632;10.156;2023-05-14T08:56:53;11.90;99.90
4739;DHT22;2383;48.632;10.156;2023-05-14T09:00:55;11.90;99.90
4739;DHT22;2383;48.632;10.156;2023-05-14T09:04:59;12.00;99.90
4739;DHT22;2383;48.632;10.156;2023-05-14T09:09:01;11.90;99.90
4739;DHT22;2383;48.632;10.156;2023-05-14T09:13:04;11.40;99.90
4739;DHT22;2383;48.632;10.156;2023-05-14T09:17:07;11.90;99.90
4739;DHT22;2383;48.632;10.156;2023-05-14T09:21:09;11.80;99.90
4739;DHT22;2383;48.632;10.156;2023-05-14T09:25:11;11.90;99.90
4739;DHT22;2383;48.632;10.156;2023-05-14T09:29:13;12.30;99.90
4739;DHT22;2383;48.632;10.156;2023-05-14T09:33:28;12.50;99.90
4739;DHT22;2383;48.632;10.156;2023-05-14T09:37:29;12.60;99.90
4739;DHT22;2383;48.632;10.156;2023-05-14T09:41:36;13.10;99.90
4739;DHT22;2383;48.632;10.156;2023-05-14T09:45:39;12.60;99.90
4739;DHT22;2383;48.632;10.156;2023-05-14T09:49:41;12.80;99.90
4739;DHT22;2383;48.632;10.156;2023-05-14T09:53:43;12.10;99.90
4739;DHT22;2383;48.632;10.156;2023-05-14T09:57:45;12.20;99.90
4739;DHT22;2383;48.632;10.156;2023-05-14T10:01:48;12.60;99.90
4739;DHT22;2383;48.632;10.156;2023-05-14T10:05:51;12.80;99.70
4739;DHT22;2383;48.632;10.156;2023-05-14T10:09:58;12.10;99.90
4739;DHT22;2383;48.632;10.156;2023-05-14T10:14:06;11.90;99.90
4739;DHT22;2383;48.632;10.156;2023-05-14T10:18:18;11.10;99.90
4739;DHT22;2383;48.632;10.156;2023-05-14T10:22:26;11.70;99.90
4739;DHT22;2383;48.632;10.156;2023-05-14T10:26:28;12.10;99.90
4739;DHT22;2383;48.632;10.156;2023-05-14T10:30:31;12.60;99.90
4739;DHT22;2383;48.632;10.156;2023-05-14T10:34:40;12.70;99.80
4739;DHT22;2383;48.632;10.156;2023-05-14T10:38:46;13.10;99.90
4739;DHT22;2383;48.632;10.156;2023-05-14T10:42:48;12.40;99.90
4739;DHT22;2383;48.632;10.156;2023-05-14T10:46:51;13.00;99.50
4739;DHT22;2383;48.632;10.156;2023-05-14T10:50:54;11.70;99.90
4739;DHT22;2383;48.632;10.156;2023-05-14T10:54:59;11.60;99.90
4739;DHT22;2383;48.632;10.156;2023-05-14T10:59:05;12.00;99.90
4739;DHT22;2383;48.632;10.156;2023-05-14T11:03:09;12.00;99.90
4739;DHT22;2383;48.632;10.156;2023-05-14T11:07:11;13.00;99.50
4739;DHT22;2383;48.632;10.156;2023-05-14T11:11:14;11.60;99.90
4739;DHT22;2383;48.632;10.156;2023-05-14T11:15:21;11.60;99.90
4739;DHT22;2383;48.632;10.156;2023-05-14T11:19:23;12.10;99.40
4739;DHT22;2383;48.632;10.156;2023-05-14T11:23:25;13.10;98.40
4739;DHT22;2383;48.632;10.156;2023-05-14T11:27:27;13.20;97.50
4739;DHT22;2383;48.632;10.156;2023-05-14T11:31:30;13.40;98.20
4739;DHT22;2383;48.632;10.156;2023-05-14T11:35:32;13.60;97.10
4739;DHT22;2383;48.632;10.156;2023-05-14T11:39:35;14.60;97.40
4739;DHT22;2383;48.632;10.156;2023-05-14T11:43:38;14.50;96.90
4739;DHT22;2383;48.632;10.156;2023-05-14T11:47:40;14.00;96.40
4739;DHT22;2383;48.632;10.156;2023-05-14T11:51:43;13.40;97.90
4739;DHT22;2383;48.632;10.156;2023-05-14T11:55:46;12.70;97.80
4739;DHT22;2383;48.632;10.156;2023-05-14T11:59:54;13.20;97.70
4739;DHT22;2383;48.632;10.156;2023-05-14T12:03:59;12.90;97.40
4739;DHT22;2383;48.632;10.156;2023-05-14T12:08:01;14.00;97.00
4739;DHT22;2383;48.632;10.156;2023-05-14T12:12:12;13.60;97.80
4739;DHT22;2383;48.632;10.156;2023-05-14T12:16:14;14.00;98.10
4739;DHT22;2383;48.632;10.156;2023-05-14T12:20:18;14.00;96.60
4739;DHT22;2383;48.632;10.156;2023-05-14T12:24:20;14.70;96.50
4739;DHT22;2383;48.632;10.156;2023-05-14T12:28:22;15.00;95.60
4739;DHT22;2383;48.632;10.156;2023-05-14T12:32:25;14.60;95.60
4739;DHT22;2383;48.632;10.156;2023-05-14T12:36:27;14.10;96.40
4739;DHT22;2383;48.632;10.156;2023-05-14T12:40:30;14.80;96.20
4739;DHT22;2383;48.632;10.156;2023-05-14T12:44:32;13.60;96.10
4739;DHT22;2383;48.632;10.156;2023-05-14T12:48:34;13.60;97.00
4739;DHT22;2383;48.632;10.156;2023-05-14T12:52:36;13.40;97.30
4739;DHT22;2383;48.632;10.156;2023-05-14T12:56:40;14.40;96.50
4739;DHT22;2383;48.632;10.156;2023-05-14T13:00:42;14.90;96.80
4739;DHT22;2383;48.632;10.156;2023-05-14T13:04:44;14.10;97.00
4739;DHT22;2383;48.632;10.156;2023-05-14T13:08:47;13.70;97.80
4739;DHT22;2383;48.632;10.156;2023-05-14T13:12:48;14.20;97.20
4739;DHT22;2383;48.632;10.156;2023-05-14T13:16:51;14.20;96.90
4739;DHT22;2383;48.632;10.156;2023-05-14T13:20:53;14.60;96.40
4739;DHT22;2383;48.632;10.156;2023-05-14T13:24:55;13.70;96.60
4739;DHT22;2383;48.632;10.156;2023-05-14T13:28:57;14.00;96.80
4739;DHT22;2383;48.632;10.156;2023-05-14T13:32:59;13.60;96.70
4739;DHT22;2383;48.632;10.156;2023-05-14T13:37:01;12.80;97.60
4739;DHT22;2383;48.632;10.156;2023-05-14T13:41:03;11.70;98.70
4739;DHT22;2383;48.632;10.156;2023-05-14T13:45:06;12.20;99.90
4739;DHT22;2383;48.632;10.156;2023-05-14T13:49:08;12.10;99.90
4739;DHT22;2383;48.632;10.156;2023-05-14T13:53:10;12.70;99.90
4739;DHT22;2383;48.632;10.156;2023-05-14T13:57:12;13.20;99.30
4739;DHT22;2383;48.632;10.156;2023-05-14T14:01:14;13.10;99.30
4739;DHT22;2383;48.632;10.156;2023-05-14T14:05:16;12.90;98.80
4739;DHT22;2383;48.632;10.156;2023-05-14T14:09:18;13.00;98.80
4739;DHT22;2383;48.632;10.156;2023-05-14T14:13:21;13.30;99.00
4739;DHT22;2383;48.632;10.156;2023-05-14T14:17:23;13.40;98.70
4739;DHT22;2383;48.632;10.156;2023-05-14T14:21:25;13.50;98.60
4739;DHT22;2383;48.632;10.156;2023-05-14T14:25:27;12.90;99.20
4739;DHT22;2383;48.632;10.156;2023-05-14T14:29:29;13.00;98.90
4739;DHT22;2383;48.632;10.156;2023-05-14T14:33:32;13.20;97.80
4739;DHT22;2383;48.632;10.156;2023-05-14T14:37:34;13.10;98.10
4739;DHT22;2383;48.632;10.156;2023-05-14T14:41:36;12.70;98.70
4739;DHT22;2383;48.632;10.156;2023-05-14T14:45:38;12.50;97.90
4739;DHT22;2383;48.632;10.156;2023-05-14T14:49:40;12.70;97.20
4739;DHT22;2383;48.632;10.156;2023-05-14T14:53:42;12.30;97.20
4739;DHT22;2383;48.632;10.156;2023-05-14T14:57:44;11.50;97.60
4739;DHT22;2383;48.632;10.156;2023-05-14T15:01:46;12.20;97.90
4739;DHT22;2383;48.632;10.156;2023-05-14T15:05:48;12.20;97.20
4739;DHT22;2383;48.632;10.156;2023-05-14T15:09:51;11.90;96.90
4739;DHT22;2383;48.632;10.156;2023-05-14T15:13:53;11.80;97.10
4739;DHT22;2383;48.632;10.156;2023-05-14T15:17:55;12.60;96.80
4739;DHT22;2383;48.632;10.156;2023-05-14T15:21:57;12.30;95.90
4739;DHT22;2383;48.632;10.156;2023-05-14T15:26:00;12.10;96.10
4739;DHT22;2383;48.632;10.156;2023-05-14T15:30:02;12.30;95.60
4739;DHT22;2383;48.632;10.156;2023-05-14T15:34:05;12.40;95.50
4739;DHT22;2383;48.632;10.156;2023-05-14T15:38:07;11.90;95.90
4739;DHT22;2383;48.632;10.156;2023-05-14T15:42:10;11.60;96.20
4739;DHT22;2383;48.632;10.156;2023-05-14T15:46:12;11.30;96.20
4739;DHT22;2383;48.632;10.156;2023-05-14T15:50:14;11.60;96.50
4739;DHT22;2383;48.632;10.156;2023-05-14T15:54:16;12.00;96.60
4739;DHT22;2383;48.632;10.156;2023-05-14T15:58:18;11.60;96.10
4739;DHT22;2383;48.632;10.156;2023-05-14T16:02:20;12.40;95.90
4739;DHT22;2383;48.632;10.156;2023-05-14T16:06:22;12.20;95.60
4739;DHT22;2383;48.632;10.156;2023-05-14T16:10:24;12.80;94.40
4739;DHT22;2383;48.632;10.156;2023-05-14T16:14:26;12.80;94.70
4739;DHT22;2383;48.632;10.156;2023-05-14T16:18:28;12.80;95.10
4739;DHT22;2383;48.632;10.156;2023-05-14T16:22:31;13.00;94.60
4739;DHT22;2383;48.632;10.156;2023-05-14T16:26:38;13.10;94.60
4739;DHT22;2383;48.632;10.156;2023-05-14T16:30:40;13.60;94.60
4739;DHT22;2383;48.632;10.156;2023-05-14T16:34:42;14.30;94.40
4739;DHT22;2383;48.632;10.156;2023-05-14T16:38:51;14.00;93.70
4739;DHT22;2383;48.632;10.156;2023-05-14T16:43:08;14.10;93.00
4739;DHT22;2383;48.632;10.156;2023-05-14T16:47:10;14.00;93.70
4739;DHT22;2383;48.632;10.156;2023-05-14T16:51:12;13.60;94.20
4739;DHT22;2383;48.632;10.156;2023-05-14T16:55:14;14.70;93.80
4739;DHT22;2383;48.632;10.156;2023-05-14T16:59:17;14.60;95.80
4739;DHT22;2383;48.632;10.156;2023-05-14T17:03:18;14.80;96.20
4739;DHT22;2383;48.632;10.156;2023-05-14T17:07:21;15.00;96.10
4739;DHT22;2383;48.632;10.156;2023-05-14T17:11:23;14.50;96.20
4739;DHT22;2383;48.632;10.156;2023-05-14T17:15:25;14.60;96.30
4739;DHT22;2383;48.632;10.156;2023-05-14T17:19:27;14.80;96.60
4739;DHT22;2383;48.632;10.156;2023-05-14T17:23:29;14.80;96.70
4739;DHT22;2383;48.632;10.156;2023-05-14T17:27:31;14.70;96.70
4739;DHT22;2383;48.632;10.156;2023-05-14T17:31:34;14.70;96.80
4739;DHT22;2383;48.632;10.156;2023-05-14T17:35:36;14.70;96.60
4739;DHT22;2383;48.632;10.156;2023-05-14T17:39:38;14.70;96.20
4739;DHT22;2383;48.632;10.156;2023-05-14T17:43:40;14.60;96.50
4739;DHT22;2383;48.632;10.156;2023-05-14T17:47:42;14.50;96.60
4739;DHT22;2383;48.632;10.156;2023-05-14T17:51:44;14.30;97.10
4739;DHT22;2383;48.632;10.156;2023-05-14T17:55:46;14.40;97.00
4739;DHT22;2383;48.632;10.156;2023-05-14T17:59:48;14.40;97.10
4739;DHT22;2383;48.632;10.156;2023-05-14T18:03:51;14.30;97.40
4739;DHT22;2383;48.632;10.156;2023-05-14T18:07:53;14.30;97.80
4739;DHT22;2383;48.632;10.156;2023-05-14T18:11:57;14.00;98.20
4739;DHT22;2383;48.632;10.156;2023-05-14T18:15:59;14.00;98.50
4739;DHT22;2383;48.632;10.156;2023-05-14T18:20:01;13.90;98.20
4739;DHT22;2383;48.632;10.156;2023-05-14T18:24:04;13.90;97.80
4739;DHT22;2383;48.632;10.156;2023-05-14T18:28:06;13.70;97.80
4739;DHT22;2383;48.632;10.156;2023-05-14T18:32:08;13.50;98.10
4739;DHT22;2383;48.632;10.156;2023-05-14T18:36:10;13.40;98.00
4739;DHT22;2383;48.632;10.156;2023-05-14T18:40:12;13.20;98.00
4739;DHT22;2383;48.632;10.156;2023-05-14T18:44:19;12.90;98.30
4739;DHT22;2383;48.632;10.156;2023-05-14T18:48:21;13.10;98.40
4739;DHT22;2383;48.632;10.156;2023-05-14T18:52:24;12.50;98.90
4739;DHT22;2383;48.632;10.156;2023-05-14T18:56:26;12.40;99.20
4739;DHT22;2383;48.632;10.156;2023-05-14T19:00:29;12.60;99.00
4739;DHT22;2383;48.632;10.156;2023-05-14T19:04:30;12.90;99.00
4739;DHT22;2383;48.632;10.156;2023-05-14T19:08:39;13.00;98.80
4739;DHT22;2383;48.632;10.156;2023-05-14T19:12:42;13.00;99.10
4739;DHT22;2383;48.632;10.156;2023-05-14T19:16:44;13.10;99.10
4739;DHT22;2383;48.632;10.156;2023-05-14T19:20:46;12.90;99.30
4739;DHT22;2383;48.632;10.156;2023-05-14T19:24:48;12.60;99.60
4739;DHT22;2383;48.632;10.156;2023-05-14T19:28:50;12.50;99.70
4739;DHT22;2383;48.632;10.156;2023-05-14T19:32:58;12.30;99.90
4739;DHT22;2383;48.632;10.156;2023-05-14T19:37:01;12.50;99.90
4739;DHT22;2383;48.632;10.156;2023-05-14T19:41:03;12.80;99.90
4739;DHT22;2383;48.632;10.156;2023-05-14T19:45:05;12.90;99.80
4739;DHT22;2383;48.632;10.156;2023-05-14T19:49:07;12.90;99.80
4739;DHT22;2383;48.632;10.156;2023-05-14T19:53:09;12.90;99.90
4739;DHT22;2383;48.632;10.156;2023-05-14T19:57:12;12.90;99.90
4739;DHT22;2383;48.632;10.156;2023-05-14T20:01:14;12.90;99.90
4739;DHT22;2383;48.632;10.156;2023-05-14T20:05:16;13.00;99.90
4739;DHT22;2383;48.632;10.156;2023-05-14T20:09:17;13.00;99.90
4739;DHT22;2383;48.632;10.156;2023-05-14T20:13:20;12.90;99.90
4739;DHT22;2383;48.632;10.156;2023-05-14T20:17:26;12.90;99.90
4739;DHT22;2383;48.632;10.156;2023-05-14T20:21:28;12.80;99.90
4739;DHT22;2383;48.632;10.156;2023-05-14T20:25:30;12.60;99.90
4739;DHT22;2383;48.632;10.156;2023-05-14T20:29:33;12.60;99.90
4739;DHT22;2383;48.632;10.156;2023-05-14T20:33:35;12.60;99.90
4739;DHT22;2383;48.632;10.156;2023-05-14T20:37:37;12.60;99.90
4739;DHT22;2383;48.632;10.156;2023-05-14T20:41:39;12.50;99.90
4739;DHT22;2383;48.632;10.156;2023-05-14T20:45:41;12.40;99.90
4739;DHT22;2383;48.632;10.156;2023-05-14T20:49:43;12.60;99.90
4739;DHT22;2383;48.632;10.156;2023-05-14T20:58:38;12.50;99.90
4739;DHT22;2383;48.632;10.156;2023-05-14T21:02:40;12.40;99.90
4739;DHT22;2383;48.632;10.156;2023-05-14T21:06:42;12.40;99.90
4739;DHT22;2383;48.632;10.156;2023-05-14T21:10:44;12.50;99.90
4739;DHT22;2383;48.632;10.156;2023-05-14T21:14:46;12.30;99.90
4739;DHT22;2383;48.632;10.156;2023-05-14T21:18:48;12.30;99.90
4739;DHT22;2383;48.632;10.156;2023-05-14T21:22:50;12.40;99.90
4739;DHT22;2383;48.632;10.156;2023-05-14T21:26:52;12.50;99.90
4739;DHT22;2383;48.632;10.156;2023-05-14T21:30:54;12.50;99.90
4739;DHT22;2383;48.632;10.156;2023-05-14T21:34:56;12.40;99.90
4739;DHT22;2383;48.632;10.156;2023-05-14T21:38:58;12.10;99.90
4739;DHT22;2383;48.632;10.156;2023-05-14T21:43:00;12.20;99.90
4739;DHT22;2383;48.632;10.156;2023-05-14T21:47:03;12.10;99.90
4739;DHT22;2383;48.632;10.156;2023-05-14T21:51:05;12.10;99.90
4739;DHT22;2383;48.632;10.156;2023-05-14T21:55:07;12.20;99.90
4739;DHT22;2383;48.632;10.156;2023-05-14T21:59:09;12.30;99.90
4739;DHT22;2383;48.632;10.156;2023-05-14T22:03:11;12.30;99.90
4739;DHT22;2383;48.632;10.156;2023-05-14T22:07:13;12.30;99.90
4739;DHT22;2383;48.632;10.156;2023-05-14T22:11:15;12.30;99.90
4739;DHT22;2383;48.632;10.156;2023-05-14T22:15:17;12.30;99.90
4739;DHT22;2383;48.632;10.156;2023-05-14T22:19:19;12.10;99.90
4739;DHT22;2383;48.632;10.156;2023-05-14T22:23:21;12.00;99.90
4739;DHT22;2383;48.632;10.156;2023-05-14T22:27:23;12.00;99.90
4739;DHT22;2383;48.632;10.156;2023-05-14T22:31:25;12.00;99.90
4739;DHT22;2383;48.632;10.156;2023-05-14T22:35:27;12.00;99.90
4739;DHT22;2383;48.632;10.156;2023-05-14T22:39:29;12.00;99.90
4739;DHT22;2383;48.632;10.156;2023-05-14T22:43:31;12.10;99.90
4739;DHT22;2383;48.632;10.156;2023-05-14T22:47:33;12.10;99.90
4739;DHT22;2383;48.632;10.156;2023-05-14T22:51:35;12.10;99.90
4739;DHT22;2383;48.632;10.156;2023-05-14T22:55:37;12.10;99.90
4739;DHT22;2383;48.632;10.156;2023-05-14T22:59:39;12.10;99.90
4739;DHT22;2383;48.632;10.156;2023-05-14T23:03:41;12.00;99.90
4739;DHT22;2383;48.632;10.156;2023-05-14T23:07:43;11.90;99.90
4739;DHT22;2383;48.632;10.156;2023-05-14T23:11:45;11.90;99.90
4739;DHT22;2383;48.632;10.156;2023-05-14T23:15:47;11.70;99.90
4739;DHT22;2383;48.632;10.156;2023-05-14T23:19:50;11.40;99.90
4739;DHT22;2383;48.632;10.156;2023-05-14T23:23:52;11.40;99.90
4739;DHT22;2383;48.632;10.156;2023-05-14T23:27:54;11.40;99.90
4739;DHT22;2383;48.632;10.156;2023-05-14T23:31:56;11.00;99.90
4739;DHT22;2383;48.632;10.156;2023-05-14T23:35:58;11.00;99.90
4739;DHT22;2383;48.632;10.156;2023-05-14T23:40:00;11.00;99.90
4739;DHT22;2383;48.632;10.156;2023-05-14T23:44:02;11.00;99.90
4739;DHT22;2383;48.632;10.156;2023-05-14T23:48:04;11.00;99.90
4739;DHT22;2383;48.632;10.156;2023-05-14T23:52:06;10.50;99.90
4739;DHT22;2383;48.632;10.156;2023-05-14T23:56:08;10.30;99.90
